Time;durP1;ratioP1;P1;durP2;ratioP2;P2;SDS_P1;SDS_P2;PMS_P1;PMS_P2;Temp;Humidity;BMP_temperature;BMP_pressure;BME280_temperature;BME280_humidity;BME280_pressure;Samples;Min_cycle;Max_cycle;Signal;HPM_P1;HPM_P2
2021/12/15 00:00:17;;;;;;;;;;;;;;;4.30;68.83;95784.44;5117113;28;1028;-48
2021/12/15 00:02:44;;;;;;;;;;;;;;;4.35;69.57;95782.31;5117337;28;1906;-48
2021/12/15 00:05:13;;;;;;;;;;;;;;;4.32;69.53;95787.81;5117097;28;1045;-48
2021/12/15 00:07:39;;;;;;;;;;;;;;;4.42;69.06;95780.06;5117108;28;1079;-48
2021/12/15 00:10:05;;;;;;;;;;;;;;;4.41;69.31;95778.41;5117338;28;1233;-48
2021/12/15 00:12:32;;;;;;;;;;;;;;;4.27;70.02;95788.16;5117111;28;985;-48
2021/12/15 00:14:58;;;;;;;;;;;;;;;4.21;70.57;95787.72;5116777;28;1057;-48
2021/12/15 00:17:24;;;;;;;;;;;;;;;4.29;70.30;95793.34;5116823;28;1021;-47
2021/12/15 00:19:51;;;;;;;;;;;;;;;4.24;70.91;95798.94;5117021;28;1004;-48
2021/12/15 00:22:17;;;;;;;;;;;;;;;4.11;71.57;95796.28;5116829;28;2000;-48
2021/12/15 00:24:43;;;;;;;;;;;;;;;4.13;70.88;95790.91;5116915;28;980;-48
2021/12/15 00:27:09;;;;;;;;;;;;;;;4.16;70.92;95805.75;5117055;28;977;-48
2021/12/15 00:29:35;;;;;;;;;;;;;;;4.19;71.44;95801.09;5116416;28;1259;-48
2021/12/15 00:32:04;;;;;;;;;;;;;;;4.00;71.02;95804.13;5116755;28;1261;-49
2021/12/15 00:34:31;;;;;;;;;;;;;;;3.98;72.23;95811.31;5116533;28;987;-48
2021/12/15 00:36:58;;;;;;;;;;;;;;;3.99;71.31;95805.09;5116504;28;1096;-48
2021/12/15 00:39:25;;;;;;;;;;;;;;;3.91;71.88;95810.91;5116819;28;1028;-48
2021/12/15 00:41:51;;;;;;;;;;;;;;;3.87;71.01;95811.19;5116764;28;992;-48
2021/12/15 00:44:17;;;;;;;;;;;;;;;4.02;71.31;95810.19;5116164;28;1995;-48
2021/12/15 00:46:43;;;;;;;;;;;;;;;4.06;71.10;95803.72;5116603;28;973;-48
2021/12/15 00:49:09;;;;;;;;;;;;;;;4.05;71.72;95803.81;5116601;28;1064;-48
2021/12/15 00:51:37;;;;;;;;;;;;;;;3.96;71.96;95799.16;5116566;28;969;-48
2021/12/15 00:54:04;;;;;;;;;;;;;;;3.93;71.24;95808.16;5116505;28;973;-48
2021/12/15 00:56:30;;;;;;;;;;;;;;;3.87;72.00;95798.84;5116248;28;1889;-48
2021/12/15 00:58:56;;;;;;;;;;;;;;;3.93;71.82;95805.50;5115722;28;1029;-48
2021/12/15 01:01:23;;;;;;;;;;;;;;;4.01;71.72;95807.63;5115494;28;1044;-48
2021/12/15 01:03:49;;;;;;;;;;;;;;;4.07;71.68;95802.75;5116185;28;1914;-48
2021/12/15 01:06:18;;;;;;;;;;;;;;;3.97;72.30;95804.34;5115947;28;929;-48
2021/12/15 01:08:46;;;;;;;;;;;;;;;4.02;71.86;95804.03;5115932;28;1021;-48
2021/12/15 01:11:26;;;;;;;;;;;;;;;4.09;71.33;95795.56;5115903;27;1041;-48
2021/12/15 01:19:48;;;;;;;;;;;;;;;4.04;71.64;95807.41;5115642;28;1109;-48
2021/12/15 01:22:15;;;;;;;;;;;;;;;4.17;71.11;95802.13;5115894;28;1951;-48
2021/12/15 01:24:41;;;;;;;;;;;;;;;4.14;71.12;95807.66;5115901;28;1047;-48
2021/12/15 01:27:07;;;;;;;;;;;;;;;4.30;70.92;95797.66;5115621;28;1048;-48
2021/12/15 01:29:33;;;;;;;;;;;;;;;4.31;70.53;95799.38;5115608;28;1213;-48
2021/12/15 01:31:59;;;;;;;;;;;;;;;4.23;70.56;95793.75;5115596;28;1214;-49
2021/12/15 01:34:25;;;;;;;;;;;;;;;4.27;70.34;95792.59;5115628;28;980;-48
2021/12/15 01:36:51;;;;;;;;;;;;;;;4.37;70.06;95800.75;5115292;28;1055;-48
2021/12/15 01:39:17;;;;;;;;;;;;;;;4.33;70.61;95794.81;5115310;28;1124;-48
2021/12/15 01:41:43;;;;;;;;;;;;;;;4.32;70.72;95803.69;5115440;28;1092;-48
2021/12/15 01:46:57;;;;;;;;;;;;;;;4.38;69.53;95789.19;5115711;28;1061;-48
2021/12/15 01:49:23;;;;;;;;;;;;;;;4.42;69.90;95788.88;5114938;28;1056;-48
2021/12/15 01:51:49;;;;;;;;;;;;;;;4.25;69.57;95787.41;5115114;28;1044;-48
2021/12/15 01:54:16;;;;;;;;;;;;;;;4.29;69.62;95799.47;5115409;28;957;-48
2021/12/15 01:56:42;;;;;;;;;;;;;;;4.27;69.57;95793.44;5115049;28;1895;-48
2021/12/15 01:59:10;;;;;;;;;;;;;;;4.26;69.99;95794.38;5115302;28;1062;-48
2021/12/15 02:01:36;;;;;;;;;;;;;;;4.27;69.56;95798.75;5115184;28;1059;-48
2021/12/15 02:04:02;;;;;;;;;;;;;;;4.28;69.94;95792.47;5114656;28;1906;-48
2021/12/15 02:06:28;;;;;;;;;;;;;;;4.34;69.26;95798.31;5115154;28;1041;-49
2021/12/15 02:08:54;;;;;;;;;;;;;;;4.24;69.81;95798.94;5115096;28;929;-48
2021/12/15 02:11:20;;;;;;;;;;;;;;;4.23;69.44;95799.91;5114635;28;1092;-48
2021/12/15 02:13:46;;;;;;;;;;;;;;;4.20;69.75;95804.56;5114905;28;1051;-48
2021/12/15 02:16:12;;;;;;;;;;;;;;;4.13;70.37;95801.47;5114681;28;1035;-48
2021/12/15 02:18:42;;;;;;;;;;;;;;;4.14;69.71;95802.34;5114818;28;977;-48
2021/12/15 02:21:14;;;;;;;;;;;;;;;4.09;70.07;95800.00;5114584;28;1093;-48
2021/12/15 02:23:45;;;;;;;;;;;;;;;4.13;68.95;95795.34;5114406;28;1905;-48
2021/12/15 02:26:16;;;;;;;;;;;;;;;4.17;69.20;95794.19;5114655;28;968;-48
2021/12/15 02:28:47;;;;;;;;;;;;;;;4.20;68.43;95799.28;5114729;28;1388;-48
2021/12/15 02:38:52;;;;;;;;;;;;;;;4.26;68.50;95793.53;5114280;28;1112;-48
2021/12/15 02:41:22;;;;;;;;;;;;;;;4.27;69.15;95795.25;5114428;28;1048;-48
2021/12/15 02:44:12;;;;;;;;;;;;;;;4.31;68.65;95799.38;5114449;28;1977;-48
2021/12/15 02:46:38;;;;;;;;;;;;;;;4.23;69.12;95793.75;5106142;28;1291;-48
2021/12/15 02:49:06;;;;;;;;;;;;;;;4.19;69.05;95801.09;5114013;28;1096;-48
2021/12/15 02:51:32;;;;;;;;;;;;;;;4.08;69.84;95803.63;5114432;28;980;-48
2021/12/15 02:53:59;;;;;;;;;;;;;;;4.19;69.54;95793.16;5114107;28;1049;-48
2021/12/15 02:56:25;;;;;;;;;;;;;;;4.20;69.56;95789.53;5114239;28;1051;-48
2021/12/15 02:59:02;;;;;;;;;;;;;;;4.22;69.87;95789.44;5114256;28;1033;-48
2021/12/15 03:01:38;;;;;;;;;;;;;;;4.23;70.29;95796.41;5114004;28;1080;-48
2021/12/15 03:06:40;;;;;;;;;;;;;;;4.17;69.54;95799.47;5113974;28;1025;-48
2021/12/15 03:15:21;;;;;;;;;;;;;;;4.18;70.22;95799.38;5114207;28;1001;-48
2021/12/15 03:17:27;;;;;;;;;;;;;;;4.08;70.31;95807.09;5113775;28;1452;-48
2021/12/15 03:19:53;;;;;;;;;;;;;;;4.07;69.88;95804.56;5114156;28;1000;-48
2021/12/15 03:22:19;;;;;;;;;;;;;;;4.09;69.39;95808.78;5114101;28;1922;-48
2021/12/15 03:24:46;;;;;;;;;;;;;;;3.96;69.70;95815.03;5117635;28;1088;-48
2021/12/15 03:27:18;;;;;;;;;;;;;;;3.96;69.34;95815.88;5118033;28;969;-48
2021/12/15 03:37:44;;;;;;;;;;;;;;;4.03;68.30;95826.91;5117574;28;1084;-48
2021/12/15 03:40:17;;;;;;;;;;;;;;;3.97;68.28;95827.31;5117652;28;1027;-48
2021/12/15 03:42:45;;;;;;;;;;;;;;;3.96;68.66;95838.84;5117903;28;1902;-48
2021/12/15 03:45:14;;;;;;;;;;;;;;;4.00;67.94;95843.81;5117596;28;1306;-48
2021/12/15 03:47:41;;;;;;;;;;;;;;;4.01;67.46;95844.69;5117789;28;2014;-48
2021/12/15 03:50:11;;;;;;;;;;;;;;;3.98;67.55;95856.31;5117401;28;1021;-48
2021/12/15 03:52:37;;;;;;;;;;;;;;;3.86;67.91;95844.75;5117561;28;984;-48
2021/12/15 03:55:05;;;;;;;;;;;;;;;3.93;67.54;95845.19;5117694;28;957;-48
2021/12/15 03:57:31;;;;;;;;;;;;;;;3.96;67.82;95842.31;5117577;28;984;-48
2021/12/15 03:59:57;;;;;;;;;;;;;;;3.95;67.74;95853.03;5117303;27;1036;-48
2021/12/15 04:02:24;;;;;;;;;;;;;;;3.93;68.31;95855.78;5117071;28;1909;-48
2021/12/15 04:04:50;;;;;;;;;;;;;;;3.88;67.80;95855.25;5117306;28;1005;-48
2021/12/15 04:07:17;;;;;;;;;;;;;;;3.86;67.86;95857.97;5117292;28;1028;-48
2021/12/15 04:09:43;;;;;;;;;;;;;;;3.94;67.56;95860.09;5117408;28;1028;-48
2021/12/15 04:12:10;;;;;;;;;;;;;;;3.92;67.31;95867.31;5117288;28;1044;-48
2021/12/15 04:14:44;;;;;;;;;;;;;;;3.96;67.20;95867.94;5116940;28;1044;-48
2021/12/15 04:17:26;;;;;;;;;;;;;;;3.97;66.70;95864.38;5116900;28;1152;-48
2021/12/15 04:19:54;;;;;;;;;;;;;;;4.00;66.68;95864.13;5117215;28;973;-48
2021/12/15 04:22:20;;;;;;;;;;;;;;;4.00;66.57;95872.91;5117035;28;1979;-48
2021/12/15 04:24:46;;;;;;;;;;;;;;;3.84;67.15;95870.47;5117073;28;1008;-48
2021/12/15 04:27:12;;;;;;;;;;;;;;;3.71;67.15;95875.72;5116790;28;1023;-48
2021/12/15 04:29:39;;;;;;;;;;;;;;;3.76;66.87;95874.59;5116901;28;1357;-48
2021/12/15 04:32:09;;;;;;;;;;;;;;;3.78;66.87;95875.34;5116672;28;1202;-49
2021/12/15 04:34:35;;;;;;;;;;;;;;;3.89;66.55;95875.47;5115270;28;920;-48
2021/12/15 04:37:01;;;;;;;;;;;;;;;3.83;67.04;95875.84;5116381;28;1049;-48
2021/12/15 04:39:28;;;;;;;;;;;;;;;3.77;66.66;95879.75;5116763;28;1047;-48
2021/12/15 04:41:55;;;;;;;;;;;;;;;3.72;67.55;95881.88;5116513;28;1049;-48
2021/12/15 04:44:23;;;;;;;;;;;;;;;3.68;67.30;95890.94;5116656;28;1991;-48
2021/12/15 04:46:59;;;;;;;;;;;;;;;3.59;66.73;95878.34;5116348;28;1047;-48
2021/12/15 04:49:25;;;;;;;;;;;;;;;3.53;67.55;95887.53;5116634;28;1044;-48
2021/12/15 04:51:51;;;;;;;;;;;;;;;3.71;66.76;95893.38;5116465;28;1008;-48
2021/12/15 04:54:18;;;;;;;;;;;;;;;3.83;66.81;95897.88;5116403;28;1047;-48
2021/12/15 04:56:44;;;;;;;;;;;;;;;3.78;66.78;95892.03;5116246;28;2440;-49
2021/12/15 04:59:10;;;;;;;;;;;;;;;3.59;67.66;95887.13;5116184;28;1088;-48
2021/12/15 05:01:36;;;;;;;;;;;;;;;3.54;68.16;95894.50;5116308;28;1059;-48
2021/12/15 05:04:02;;;;;;;;;;;;;;;3.65;67.56;95899.94;5116281;28;1992;-48
2021/12/15 05:06:28;;;;;;;;;;;;;;;3.61;68.23;95911.66;5116148;28;973;-48
2021/12/15 05:08:55;;;;;;;;;;;;;;;3.47;68.92;95904.63;5115986;28;1865;-48
2021/12/15 05:11:21;;;;;;;;;;;;;;;3.51;68.60;95905.28;5116219;28;1012;-48
2021/12/15 05:13:48;;;;;;;;;;;;;;;3.58;68.40;95900.44;5115789;28;1037;-48
2021/12/15 05:16:16;;;;;;;;;;;;;;;3.62;68.21;95900.13;5115972;28;989;-48
2021/12/15 05:18:43;;;;;;;;;;;;;;;3.59;68.74;95902.97;5116254;28;1051;-48
2021/12/15 05:21:10;;;;;;;;;;;;;;;3.53;68.82;95900.75;5116021;28;1048;-48
2021/12/15 05:23:36;;;;;;;;;;;;;;;3.49;68.90;95901.88;5131749;27;2071;-48
2021/12/15 05:26:04;;;;;;;;;;;;;;;3.40;69.22;95897.19;5115738;28;1032;-48
2021/12/15 05:28:30;;;;;;;;;;;;;;;3.49;68.67;95899.22;5115907;28;972;-48
2021/12/15 05:30:57;;;;;;;;;;;;;;;3.52;68.77;95901.69;5115576;28;1253;-48
2021/12/15 05:33:24;;;;;;;;;;;;;;;3.50;68.23;95893.84;5115351;28;1120;-48
2021/12/15 05:35:53;;;;;;;;;;;;;;;3.52;68.35;95893.75;5115607;27;1040;-48
2021/12/15 05:38:19;;;;;;;;;;;;;;;3.49;68.78;95897.44;5115465;28;1051;-48
2021/12/15 05:40:45;;;;;;;;;;;;;;;3.44;69.30;95893.41;5115434;28;1008;-48
2021/12/15 05:43:11;;;;;;;;;;;;;;;3.46;69.15;95902.09;5115296;28;1989;-49
2021/12/15 05:45:38;;;;;;;;;;;;;;;3.52;69.38;95905.16;5114994;28;1055;-48
2021/12/15 05:48:06;;;;;;;;;;;;;;;3.51;68.83;95900.84;5115036;28;1095;-48
2021/12/15 05:50:32;;;;;;;;;;;;;;;3.49;68.61;95904.50;5115219;28;1066;-48
2021/12/15 05:53:00;;;;;;;;;;;;;;;3.56;68.87;95905.81;5115380;28;1015;-48
2021/12/15 05:55:26;;;;;;;;;;;;;;;3.50;68.88;95908.88;5115345;28;1119;-48
2021/12/15 05:57:52;;;;;;;;;;;;;;;3.55;68.83;95912.06;5115010;28;1037;-48
2021/12/15 06:00:22;;;;;;;;;;;;;;;3.54;68.25;95907.72;5114771;28;1142;-48
2021/12/15 06:02:48;;;;;;;;;;;;;;;3.50;69.02;95904.41;5115108;28;1917;-48
2021/12/15 06:05:14;;;;;;;;;;;;;;;3.56;68.34;95916.41;5115175;28;1040;-48
2021/12/15 06:07:41;;;;;;;;;;;;;;;3.50;69.36;95908.88;5114809;28;1483;-48
2021/12/15 06:10:08;;;;;;;;;;;;;;;3.56;68.53;95912.91;5114803;28;1045;-48
2021/12/15 06:12:34;;;;;;;;;;;;;;;3.61;67.63;95908.19;5114989;28;1047;-47
2021/12/15 06:15:02;;;;;;;;;;;;;;;3.56;68.28;95908.47;5114781;28;965;-47
2021/12/15 06:17:28;;;;;;;;;;;;;;;3.51;68.26;95910.56;5114725;28;984;-48
2021/12/15 06:19:55;;;;;;;;;;;;;;;3.52;68.31;95906.97;5114795;28;965;-48
2021/12/15 06:22:25;;;;;;;;;;;;;;;3.50;68.04;95904.41;5114771;28;1913;-48
2021/12/15 06:24:55;;;;;;;;;;;;;;;3.41;69.04;95899.72;5114591;28;1024;-47
2021/12/15 06:27:22;;;;;;;;;;;;;;;3.38;68.80;95905.22;5114416;28;1021;-48
2021/12/15 06:29:49;;;;;;;;;;;;;;;3.49;67.59;95909.78;5114534;27;1711;-48
2021/12/15 06:35:37;;;;;;;;;;;;;;;3.65;67.28;95917.59;3579623;28;2293;-48
2021/12/15 06:38:05;;;;;;;;;;;;;;;3.63;67.79;95917.69;5114533;28;1072;-48
2021/12/15 06:40:31;;;;;;;;;;;;;;;3.67;67.13;95926.28;5114512;28;1047;-48
2021/12/15 06:42:57;;;;;;;;;;;;;;;3.77;66.80;95915.94;5114496;28;1917;-48
2021/12/15 06:45:31;;;;;;;;;;;;;;;3.78;67.73;95920.31;5114250;28;984;-48
2021/12/15 06:58:55;;;;;;;;;;;;;;;3.67;67.22;95926.28;5113265;28;924;-48
2021/12/15 07:01:21;;;;;;;;;;;;;;;3.63;67.95;95927.44;5113998;28;1047;-48
2021/12/15 07:03:47;;;;;;;;;;;;;;;3.69;67.38;95927.88;5113918;28;1993;-48
2021/12/15 07:06:13;;;;;;;;;;;;;;;3.67;67.56;95921.00;5114011;28;1056;-48
2021/12/15 07:08:39;;;;;;;;;;;;;;;3.70;67.32;95923.44;5113139;28;973;-48
2021/12/15 07:11:06;;;;;;;;;;;;;;;3.74;66.86;95916.13;5114177;28;1031;-48
2021/12/15 07:13:32;;;;;;;;;;;;;;;3.71;66.18;95918.03;5114141;28;1051;-48
2021/12/15 07:16:05;;;;;;;;;;;;;;;3.72;66.19;95918.91;5113972;28;992;-48
2021/12/15 07:21:28;;;;;;;;;;;;;;;3.78;67.08;95921.16;5097607;28;1270;-48
2021/12/15 07:23:54;;;;;;;;;;;;;;;3.72;66.62;95922.41;5113686;28;2001;-48
2021/12/15 07:26:20;;;;;;;;;;;;;;;3.81;66.75;95934.16;5113996;28;969;-48
2021/12/15 07:28:47;;;;;;;;;;;;;;;3.79;66.88;95935.22;5113949;28;1394;-48
2021/12/15 07:31:13;;;;;;;;;;;;;;;3.83;67.01;95934.06;5113853;28;1027;-48
2021/12/15 07:33:40;;;;;;;;;;;;;;;3.94;66.30;95938.66;5114054;28;1067;-48
2021/12/15 07:36:06;;;;;;;;;;;;;;;4.02;67.01;95942.50;5113533;28;1100;-48
2021/12/15 07:38:34;;;;;;;;;;;;;;;3.94;65.91;95944.78;5113636;28;1056;-48
2021/12/15 07:41:03;;;;;;;;;;;;;;;3.86;66.27;95947.09;5114039;28;1016;-48
2021/12/15 07:43:29;;;;;;;;;;;;;;;3.97;66.51;95943.75;5113870;28;1913;-48
2021/12/15 07:46:00;;;;;;;;;;;;;;;3.91;66.31;95934.41;5113397;28;1076;-48
2021/12/15 07:48:28;;;;;;;;;;;;;;;3.76;66.42;95940.72;5113590;28;1985;-48
2021/12/15 07:50:56;;;;;;;;;;;;;;;3.88;66.07;95942.53;5113539;28;1043;-48
2021/12/15 07:53:22;;;;;;;;;;;;;;;3.89;65.98;95947.75;5113837;28;1020;-48
2021/12/15 07:55:49;;;;;;;;;;;;;;;3.82;66.54;95945.59;5113789;28;977;-49
2021/12/15 07:58:18;;;;;;;;;;;;;;;3.97;66.35;95949.88;5113645;28;1039;-48
2021/12/15 08:00:45;;;;;;;;;;;;;;;4.02;65.38;95950.44;5113292;28;1103;-48
2021/12/15 08:06:14;;;;;;;;;;;;;;;4.10;66.57;95945.47;5113415;28;1081;-47
2021/12/15 08:08:40;;;;;;;;;;;;;;;4.26;66.02;95962.97;5114062;28;972;-48
2021/12/15 08:11:06;;;;;;;;;;;;;;;4.19;65.97;95954.59;5117192;28;1058;-48
2021/12/15 08:13:33;;;;;;;;;;;;;;;4.27;66.02;95951.44;5117122;28;1004;-48
2021/12/15 08:15:59;;;;;;;;;;;;;;;4.27;65.28;95956.75;5117423;28;1117;-48
2021/12/15 08:18:26;;;;;;;;;;;;;;;4.26;65.70;95965.63;5117033;28;1025;-48
2021/12/15 08:20:52;;;;;;;;;;;;;;;4.19;65.30;95959.03;5117157;28;976;-48
2021/12/15 08:23:18;;;;;;;;;;;;;;;4.32;65.29;95972.31;5116977;27;1917;-48
2021/12/15 08:25:44;;;;;;;;;;;;;;;4.30;65.50;95973.25;5117092;28;992;-48
2021/12/15 08:28:11;;;;;;;;;;;;;;;4.18;66.06;95976.72;5116835;28;1070;-48
2021/12/15 08:30:38;;;;;;;;;;;;;;;4.10;65.85;95977.22;5116868;28;1338;-48
2021/12/15 08:33:08;;;;;;;;;;;;;;;4.15;65.76;95986.66;5116709;28;1120;-48
2021/12/15 08:35:36;;;;;;;;;;;;;;;4.08;66.13;95986.22;5116498;28;1096;-48
2021/12/15 08:38:03;;;;;;;;;;;;;;;4.11;66.26;95994.78;5116858;28;997;-48
2021/12/15 08:40:29;;;;;;;;;;;;;;;4.19;65.50;95990.78;5116845;28;969;-48
2021/12/15 08:42:56;;;;;;;;;;;;;;;4.31;64.96;95990.00;5116595;28;1917;-48
2021/12/15 08:45:25;;;;;;;;;;;;;;;4.19;64.07;95996.09;5116593;28;1102;-48
2021/12/15 08:47:51;;;;;;;;;;;;;;;4.27;64.69;95991.16;5116440;28;1088;-48
2021/12/15 08:50:20;;;;;;;;;;;;;;;4.29;63.96;95997.19;5116583;28;1076;-48
2021/12/15 08:52:46;;;;;;;;;;;;;;;4.29;63.83;96005.97;5116609;28;1036;-48
2021/12/15 08:55:12;;;;;;;;;;;;;;;4.23;64.47;96002.88;5116569;28;1020;-48
2021/12/15 08:57:46;;;;;;;;;;;;;;;4.29;64.13;95999.84;5116391;28;1000;-49
2021/12/15 09:00:12;;;;;;;;;;;;;;;4.41;64.40;96004.31;5116109;28;1020;-48
2021/12/15 09:02:38;;;;;;;;;;;;;;;4.38;63.10;95995.72;5116307;28;1906;-48
2021/12/15 09:05:05;;;;;;;;;;;;;;;4.42;63.40;95997.19;5116376;28;1069;-48
2021/12/15 09:07:31;;;;;;;;;;;;;;;4.50;63.79;96003.69;5116417;28;1036;-48
2021/12/15 09:09:57;;;;;;;;;;;;;;;4.48;63.61;95992.38;5116270;28;1047;-48
2021/12/15 09:12:23;;;;;;;;;;;;;;;4.45;62.92;95994.38;5115910;27;1123;-48
2021/12/15 09:14:49;;;;;;;;;;;;;;;4.50;63.53;95997.56;5116220;28;1036;-48
2021/12/15 09:17:15;;;;;;;;;;;;;;;4.57;62.03;95988.25;5116068;28;1019;-48
2021/12/15 09:19:41;;;;;;;;;;;;;;;4.57;61.81;95990.91;5116109;28;1020;-48
2021/12/15 09:22:07;;;;;;;;;;;;;;;4.52;63.03;95998.31;5115576;28;977;-48
2021/12/15 09:24:33;;;;;;;;;;;;;;;4.53;62.98;96004.44;5115632;28;1980;-48
2021/12/15 09:26:59;;;;;;;;;;;;;;;4.71;62.54;95984.66;5116216;28;1100;-48
2021/12/15 09:29:25;;;;;;;;;;;;;;;4.65;63.14;95982.44;5115646;28;1356;-48
2021/12/15 09:31:53;;;;;;;;;;;;;;;4.68;62.86;95979.56;5115552;28;1033;-48
2021/12/15 09:34:19;;;;;;;;;;;;;;;4.78;63.27;95982.41;5115564;27;1096;-48
2021/12/15 09:36:49;;;;;;;;;;;;;;;4.66;62.79;95978.81;5115359;28;1230;-48
2021/12/15 09:39:18;;;;;;;;;;;;;;;4.73;62.63;95976.63;5115410;28;1041;-48
2021/12/15 09:41:44;;;;;;;;;;;;;;;4.77;63.18;95981.59;5115461;28;1032;-48
2021/12/15 09:44:14;;;;;;;;;;;;;;;4.81;62.12;95985.72;5115154;28;1905;-48
2021/12/15 10:03:07;;;;;;;;;;;;;;;4.46;63.85;95983.66;5115176;28;1918;-48
2021/12/15 10:19:29;;;;;;;;;;;;;;;3.98;64.70;95991.25;5114883;28;984;-48
2021/12/15 10:21:57;;;;;;;;;;;;;;;4.06;64.86;96003.97;5114582;28;1041;-48
2021/12/15 10:24:30;;;;;;;;;;;;;;;4.00;65.28;95997.28;5114316;28;1914;-48
2021/12/15 10:26:58;;;;;;;;;;;;;;;4.29;64.74;96000.69;5114554;28;1035;-48
2021/12/15 10:29:24;;;;;;;;;;;;;;;4.28;64.83;96000.78;5114641;28;1267;-48
2021/12/15 10:32:00;;;;;;;;;;;;;;;4.08;64.74;95996.81;5114418;28;1013;-49
2021/12/15 10:34:27;;;;;;;;;;;;;;;3.82;65.36;95988.78;5114331;28;1792;-48
2021/12/15 10:36:53;;;;;;;;;;;;;;;4.02;65.65;95995.44;5114276;28;1115;-48
2021/12/15 10:39:21;;;;;;;;;;;;;;;4.02;65.31;95998.06;5114317;28;992;-48
2021/12/15 10:41:48;;;;;;;;;;;;;;;3.90;65.36;95994.41;5114533;28;1056;-48
2021/12/15 10:44:22;;;;;;;;;;;;;;;3.74;66.34;95996.34;5114259;28;2007;-48
2021/12/15 10:46:53;;;;;;;;;;;;;;;3.86;65.56;95982.31;5114496;28;985;-48
2021/12/15 10:49:24;;;;;;;;;;;;;;;4.00;65.06;95992.00;5114108;28;977;-48
2021/12/15 10:51:55;;;;;;;;;;;;;;;3.99;65.59;95987.66;5114456;28;965;-48
2021/12/15 10:54:28;;;;;;;;;;;;;;;3.97;65.25;95986.94;5114014;28;1128;-48
2021/12/15 10:57:07;;;;;;;;;;;;;;;3.82;65.18;95983.47;5114080;28;1036;-48
2021/12/15 10:59:35;;;;;;;;;;;;;;;3.71;65.92;95989.44;5114430;28;992;-48
2021/12/15 11:02:05;;;;;;;;;;;;;;;3.54;66.74;95988.84;5114056;28;1025;-48
2021/12/15 11:04:46;;;;;;;;;;;;;;;3.64;67.26;95984.66;5114152;28;1989;-48
2021/12/15 11:07:20;;;;;;;;;;;;;;;3.83;66.40;95979.03;5113946;28;1884;-48
2021/12/15 11:09:58;;;;;;;;;;;;;;;3.94;66.65;95979.19;5113921;28;1032;-48
2021/12/15 11:12:24;;;;;;;;;;;;;;;4.02;65.49;95981.31;5114111;28;1040;-48
2021/12/15 11:15:14;;;;;;;;;;;;;;;3.89;66.70;95976.00;5114130;28;969;-48
2021/12/15 11:17:51;;;;;;;;;;;;;;;3.91;65.88;95976.75;5105795;28;1446;-48
2021/12/15 11:20:31;;;;;;;;;;;;;;;3.79;65.38;95978.38;5114183;28;1071;-48
2021/12/15 11:22:57;;;;;;;;;;;;;;;3.78;65.61;95981.97;5113965;28;1910;-48
2021/12/15 11:25:27;;;;;;;;;;;;;;;3.78;66.06;95976.69;5113779;28;1112;-48
2021/12/15 11:27:57;;;;;;;;;;;;;;;3.98;64.48;95972.72;5112921;28;1051;-48
2021/12/15 11:30:28;;;;;;;;;;;;;;;3.91;65.28;95974.09;5113626;28;1338;-48
2021/12/15 11:32:55;;;;;;;;;;;;;;;3.85;66.00;95971.84;5114080;28;1039;-48
2021/12/15 11:35:24;;;;;;;;;;;;;;;3.79;65.94;95966.94;5113572;28;1243;-48
2021/12/15 11:38:02;;;;;;;;;;;;;;;3.72;66.13;95966.53;5114070;28;1147;-48
2021/12/15 11:40:46;;;;;;;;;;;;;;;3.80;65.97;95973.94;5112885;28;1005;-49
2021/12/15 11:43:31;;;;;;;;;;;;;;;3.77;65.97;95966.19;5113797;28;1914;-48
2021/12/15 11:45:58;;;;;;;;;;;;;;;3.78;65.55;95963.47;5117916;28;1035;-48
2021/12/15 11:48:29;;;;;;;;;;;;;;;3.85;65.33;95966.53;5117890;28;1036;-48
2021/12/15 11:50:58;;;;;;;;;;;;;;;4.00;64.65;95965.53;5117342;28;1041;-48
2021/12/15 11:53:32;;;;;;;;;;;;;;;4.02;65.59;95968.97;5117452;28;1052;-48
2021/12/15 11:56:10;;;;;;;;;;;;;;;4.09;63.57;95962.28;5117328;28;1041;-48
2021/12/15 11:58:36;;;;;;;;;;;;;;;3.83;63.08;95955.22;5117686;28;996;-48
2021/12/15 12:01:02;;;;;;;;;;;;;;;3.81;64.06;95959.75;5117646;28;977;-48
2021/12/15 12:03:28;;;;;;;;;;;;;;;3.90;64.45;95954.72;5117447;28;1910;-48
2021/12/15 12:05:56;;;;;;;;;;;;;;;4.03;63.71;95956.56;5117363;28;1080;-48
2021/12/15 12:08:23;;;;;;;;;;;;;;;3.94;64.88;95957.16;5116307;28;1073;-48
2021/12/15 12:10:51;;;;;;;;;;;;;;;4.08;63.62;95957.97;5117159;28;1037;-49
2021/12/15 12:13:21;;;;;;;;;;;;;;;4.11;63.47;95956.91;5116210;28;1021;-49
2021/12/15 12:15:49;;;;;;;;;;;;;;;4.06;63.20;95957.22;5117400;28;1012;-49
2021/12/15 12:18:17;;;;;;;;;;;;;;;4.12;62.43;95953.31;5117352;28;984;-49
2021/12/15 12:20:45;;;;;;;;;;;;;;;4.13;62.81;95957.63;5116765;28;1123;-49
2021/12/15 12:23:13;;;;;;;;;;;;;;;4.18;62.62;95958.19;5116831;28;1909;-49
2021/12/15 12:25:41;;;;;;;;;;;;;;;4.13;62.53;95952.34;5117017;28;987;-49
2021/12/15 12:28:09;;;;;;;;;;;;;;;4.13;63.20;95952.34;5116836;28;1061;-49
2021/12/15 12:30:40;;;;;;;;;;;;;;;4.17;62.14;95953.00;5116958;28;1350;-48
2021/12/15 12:33:09;;;;;;;;;;;;;;;4.18;62.28;95941.47;5116772;28;977;-52
2021/12/15 12:35:40;;;;;;;;;;;;;;;4.15;62.63;95949.59;5116351;28;1108;-48
2021/12/15 12:38:13;;;;;;;;;;;;;;;4.13;62.69;95943.56;5116581;28;1045;-48
2021/12/15 12:40:46;;;;;;;;;;;;;;;4.13;63.02;95938.28;5116506;28;1069;-48
2021/12/15 12:43:31;;;;;;;;;;;;;;;4.26;62.96;95933.84;5116594;27;1918;-48
2021/12/15 12:46:05;;;;;;;;;;;;;;;4.29;62.37;95945.09;5116465;28;1049;-48
2021/12/15 12:59:24;;;;;;;;;;;;;;;4.10;64.01;95949.94;5116434;28;945;-48
2021/12/15 13:01:51;;;;;;;;;;;;;;;4.16;63.29;95946.03;5116242;28;1055;-48
2021/12/15 13:04:17;;;;;;;;;;;;;;;4.21;62.61;95947.41;5115986;28;1902;-48
2021/12/15 13:06:43;;;;;;;;;;;;;;;4.11;62.96;95946.31;5116076;28;1035;-48
2021/12/15 13:09:15;;;;;;;;;;;;;;;4.08;63.00;95949.19;5116270;28;1194;-48
2021/12/15 13:11:43;;;;;;;;;;;;;;;4.02;63.80;95944.28;5116205;28;1020;-48
2021/12/15 13:14:10;;;;;;;;;;;;;;;4.13;63.54;95948.84;5116194;28;972;-48
2021/12/15 13:16:51;;;;;;;;;;;;;;;4.14;63.37;95947.94;5115958;28;1083;-48
2021/12/15 13:19:25;;;;;;;;;;;;;;;4.24;62.39;95957.78;5115967;28;1028;-48
2021/12/15 13:30:30;;;;;;;;;;;;;;;4.11;62.69;95941.03;5115525;28;1316;-48
2021/12/15 13:33:35;;;;;;;;;;;;;;;4.10;62.69;95949.94;5115554;28;641;-48
2021/12/15 13:36:13;;;;;;;;;;;;;;;4.02;62.36;95950.44;5115235;28;1806;-49
2021/12/15 13:38:39;;;;;;;;;;;;;;;4.07;62.29;95950.97;5115444;28;1025;-48
2021/12/15 13:41:09;;;;;;;;;;;;;;;3.95;63.15;95957.06;5115208;28;1038;-48
2021/12/15 13:43:38;;;;;;;;;;;;;;;4.00;63.58;95948.81;5115249;28;1991;-48
2021/12/15 13:46:05;;;;;;;;;;;;;;;3.99;63.24;95960.38;5115375;28;1020;-48
2021/12/15 13:48:57;;;;;;;;;;;;;;;4.06;63.25;95959.00;5115370;28;1160;-48
2021/12/15 13:51:42;;;;;;;;;;;;;;;4.11;62.87;95964.84;5112580;28;1828;-48
2021/12/15 13:54:27;;;;;;;;;;;;;;;4.14;64.09;95963.81;5115105;28;1081;-48
2021/12/15 13:56:53;;;;;;;;;;;;;;;4.08;64.04;95965.91;5114827;28;1018;-48
2021/12/15 13:59:31;;;;;;;;;;;;;;;3.97;64.66;95964.91;5114950;28;1041;-48
2021/12/15 14:02:24;;;;;;;;;;;;;;;3.94;63.90;95962.47;5114955;28;973;-48
2021/12/15 14:04:50;;;;;;;;;;;;;;;4.03;64.24;95964.50;5112104;28;1989;-48
2021/12/15 14:07:28;;;;;;;;;;;;;;;4.01;64.18;95972.53;5114808;28;1044;-48
2021/12/15 14:09:55;;;;;;;;;;;;;;;4.04;64.50;95977.66;5115165;28;1056;-48
2021/12/15 14:12:39;;;;;;;;;;;;;;;4.11;64.04;95973.63;5114978;28;1051;-48
2021/12/15 14:15:05;;;;;;;;;;;;;;;4.21;64.28;95970.38;5114971;28;1042;-48
2021/12/15 14:17:31;;;;;;;;;;;;;;;4.08;64.22;95965.91;5114663;28;1028;-48
2021/12/15 14:19:57;;;;;;;;;;;;;;;4.03;63.83;95973.28;5114564;28;1057;-48
2021/12/15 14:22:23;;;;;;;;;;;;;;;4.02;64.44;95982.19;5114887;28;1052;-48
2021/12/15 14:24:50;;;;;;;;;;;;;;;4.08;64.09;95968.53;5114354;28;1914;-48
2021/12/15 14:27:16;;;;;;;;;;;;;;;4.06;64.91;95980.16;5114680;27;1000;-49
2021/12/15 14:29:42;;;;;;;;;;;;;;;3.92;64.16;95970.50;5114359;28;1386;-48
2021/12/15 14:32:08;;;;;;;;;;;;;;;3.97;64.70;95979.00;5114459;28;973;-48
2021/12/15 14:34:37;;;;;;;;;;;;;;;4.00;64.60;95975.28;5114394;28;1154;-48
2021/12/15 14:37:11;;;;;;;;;;;;;;;3.94;64.94;95973.88;5114204;28;1116;-48
2021/12/15 14:39:40;;;;;;;;;;;;;;;3.94;64.42;95971.25;5114486;28;1020;-48
2021/12/15 14:42:06;;;;;;;;;;;;;;;3.94;64.39;95965.09;5114314;28;1041;-48
2021/12/15 14:44:38;;;;;;;;;;;;;;;3.80;64.83;95960.72;5114101;28;1909;-48
2021/12/15 14:47:18;;;;;;;;;;;;;;;3.67;64.83;95958.88;5114562;28;968;-48
2021/12/15 14:49:46;;;;;;;;;;;;;;;3.65;64.94;95958.13;5114512;28;1061;-48
2021/12/15 14:52:15;;;;;;;;;;;;;;;3.72;65.54;95962.06;5114196;28;1087;-48
2021/12/15 14:54:42;;;;;;;;;;;;;;;3.69;65.46;95964.91;5113178;28;976;-48
2021/12/15 14:57:12;;;;;;;;;;;;;;;3.66;65.36;95962.47;5114111;28;1115;-48
2021/12/15 14:59:44;;;;;;;;;;;;;;;3.81;65.31;95965.06;5113969;28;1036;-48